Time;durP1;ratioP1;P1;durP2;ratioP2;P2;SDS_P1;SDS_P2;PMS_P1;PMS_P2;Temp;Humidity;BMP_temperature;BMP_pressure;BME280_temperature;BME280_humidity;BME280_pressure;Samples;Min_cycle;Max_cycle;Signal;HPM_P1;HPM_P2
2023/08/22 00:01:45;;;;;;;10.17;9.07;;;;;21.00;97360.00;;;;5086452;28;20222;-87
2023/08/22 00:04:36;;;;;;;13.63;9.67;;;;;21.10;97355.00;;;;5077365;28;20238;-87
2023/08/22 00:07:25;;;;;;;12.73;9.60;;;;;21.10;97351.00;;;;5070880;28;20196;-86
2023/08/22 00:10:15;;;;;;;12.10;10.00;;;;;21.00;97359.00;;;;5079020;28;20208;-86
2023/08/22 00:13:04;;;;;;;14.67;10.10;;;;;21.00;97355.00;;;;5072010;28;20207;-85
2023/08/22 00:15:59;;;;;;;12.83;9.63;;;;;21.00;97352.00;;;;5091598;28;20223;-85
2023/08/22 00:18:48;;;;;;;12.67;10.50;;;;;20.90;97355.00;;;;5092140;28;20653;-85
2023/08/22 00:21:39;;;;;;;15.97;10.10;;;;;21.10;97353.00;;;;5078079;28;20219;-87
2023/08/22 00:24:28;;;;;;;15.73;9.63;;;;;21.10;97356.00;;;;5082470;28;20223;-87
2023/08/22 00:27:17;;;;;;;11.90;10.17;;;;;21.20;97354.00;;;;5091486;28;20207;-87
2023/08/22 00:30:07;;;;;;;11.75;9.80;;;;;21.40;97350.00;;;;5082622;28;20680;-84
2023/08/22 00:32:56;;;;;;;13.20;10.67;;;;;21.20;97338.00;;;;5107496;28;20691;-85
2023/08/22 00:35:45;;;;;;;10.87;9.23;;;;;21.30;97342.00;;;;5100589;28;20218;-85
2023/08/22 00:38:35;;;;;;;13.93;9.13;;;;;21.40;97339.00;;;;5097585;28;20190;-87
2023/08/22 00:41:25;;;;;;;11.90;9.30;;;;;21.60;97345.00;;;;5087306;28;20214;-85
2023/08/22 00:44:14;;;;;;;13.70;9.60;;;;;21.10;97332.00;;;;5088829;28;20223;-85
2023/08/22 00:47:03;;;;;;;12.03;8.50;;;;;20.40;97335.00;;;;5088435;28;20674;-85
2023/08/22 00:49:52;;;;;;;11.87;9.83;;;;;20.70;97336.00;;;;5080990;28;20208;-86
2023/08/22 00:52:42;;;;;;;12.63;9.53;;;;;20.80;97332.00;;;;5090395;28;20687;-84
2023/08/22 00:55:33;;;;;;;12.87;9.27;;;;;20.20;97336.00;;;;5068417;28;20220;-84
2023/08/22 00:58:22;;;;;;;10.67;9.57;;;;;20.10;97335.00;;;;5073772;28;20210;-87
2023/08/22 01:01:11;;;;;;;12.67;10.00;;;;;20.30;97340.00;;;;5083723;28;20677;-86
2023/08/22 01:04:00;;;;;;;10.30;9.17;;;;;20.70;97328.00;;;;5107983;28;20676;-86
2023/08/22 01:06:54;;;;;;;16.33;10.33;;;;;20.60;97331.00;;;;5070117;28;20192;-86
2023/08/22 01:09:47;;;;;;;14.43;11.07;;;;;20.40;97329.00;;;;5083834;28;20207;-84
2023/08/22 01:12:43;;;;;;;14.10;9.37;;;;;20.10;97329.00;;;;5074213;28;20676;-84
2023/08/22 01:15:35;;;;;;;10.50;9.23;;;;;20.40;97328.00;;;;5069385;28;20254;-85
2023/08/22 01:18:24;;;;;;;12.97;9.80;;;;;20.50;97328.00;;;;5077288;28;20207;-86
2023/08/22 01:21:19;;;;;;;11.77;9.43;;;;;20.60;97327.00;;;;5079349;28;20208;-85
2023/08/22 01:24:10;;;;;;;10.93;9.80;;;;;20.30;97325.00;;;;5094734;28;20625;-85
2023/08/22 01:26:59;;;;;;;12.33;8.73;;;;;20.10;97335.00;;;;5101331;28;20561;-83
2023/08/22 01:29:53;;;;;;;15.53;10.17;;;;;20.20;97324.00;;;;5081413;28;20695;-85
2023/08/22 01:32:48;;;;;;;12.90;10.57;;;;;20.30;97324.00;;;;5082637;28;20204;-85
2023/08/22 01:35:39;;;;;;;11.30;9.30;;;;;20.00;97327.00;;;;5071018;28;20269;-85
2023/08/22 01:38:30;;;;;;;16.50;10.53;;;;;19.80;97321.00;;;;5070947;28;20567;-87
2023/08/22 01:41:21;;;;;;;17.37;11.70;;;;;19.60;97325.00;;;;5078212;28;25135;-83
2023/08/22 01:44:10;;;;;;;11.60;9.83;;;;;19.30;97327.00;;;;5094730;28;20222;-85
2023/08/22 01:46:59;;;;;;;14.07;9.87;;;;;19.60;97325.00;;;;5091899;28;20191;-83
2023/08/22 01:49:48;;;;;;;15.60;10.37;;;;;19.90;97322.00;;;;5086814;28;20574;-86
2023/08/22 01:52:37;;;;;;;11.53;10.33;;;;;19.90;97320.00;;;;5079733;28;20198;-87
2023/08/22 01:55:26;;;;;;;14.23;10.20;;;;;19.50;97321.00;;;;5080577;28;20246;-85
2023/08/22 01:58:17;;;;;;;12.90;9.93;;;;;19.30;97319.00;;;;5068541;28;20839;-86
2023/08/22 02:01:09;;;;;;;11.10;9.97;;;;;19.40;97319.00;;;;5067564;28;20208;-85
2023/08/22 02:04:03;;;;;;;14.30;9.90;;;;;19.80;97316.00;;;;5075848;28;20219;-87
2023/08/22 02:06:52;;;;;;;11.73;10.23;;;;;19.80;97309.00;;;;5093171;28;20191;-85
2023/08/22 02:09:41;;;;;;;12.50;11.20;;;;;20.10;97319.00;;;;5075080;28;20203;-87
2023/08/22 02:12:30;;;;;;;15.57;10.43;;;;;20.20;97316.00;;;;5078290;28;20204;-86
2023/08/22 02:15:21;;;;;;;11.97;10.23;;;;;19.90;97313.00;;;;5078900;28;20231;-87
2023/08/22 02:18:10;;;;;;;15.43;9.37;;;;;19.60;97322.00;;;;5079015;28;20231;-87
2023/08/22 02:20:59;;;;;;;13.80;10.00;;;;;19.30;97310.00;;;;5077742;28;20203;-85
2023/08/22 02:23:48;;;;;;;12.63;9.70;;;;;19.50;97312.00;;;;5086314;28;20196;-86
2023/08/22 02:26:41;;;;;;;12.20;10.00;;;;;19.80;97299.00;;;;5081270;28;20200;-85
2023/08/22 02:29:30;;;;;;;11.93;10.13;;;;;19.80;97299.00;;;;5078578;28;20208;-83
2023/08/22 02:32:20;;;;;;;13.03;10.77;;;;;19.80;97310.00;;;;5078971;28;20204;-86
2023/08/22 02:35:09;;;;;;;15.27;10.73;;;;;19.40;97296.00;;;;5080176;28;20234;-87
2023/08/22 02:37:58;;;;;;;18.27;10.27;;;;;19.20;97298.00;;;;5072176;28;20220;-85
2023/08/22 02:40:47;;;;;;;17.90;10.83;;;;;19.50;97294.00;;;;5077221;28;20207;-87
2023/08/22 02:43:36;;;;;;;15.43;11.60;;;;;19.70;97297.00;;;;5073952;28;20200;-85
2023/08/22 02:46:27;;;;;;;14.67;10.23;;;;;19.80;97297.00;;;;5072842;28;20208;-85
2023/08/22 02:49:17;;;;;;;11.93;10.47;;;;;19.80;97295.00;;;;5075372;28;20191;-85
2023/08/22 02:52:07;;;;;;;14.23;10.30;;;;;19.60;97296.00;;;;5082564;28;20207;-87
2023/08/22 02:54:56;;;;;;;12.93;9.87;;;;;19.50;97289.00;;;;5084079;28;20215;-86
2023/08/22 02:57:45;;;;;;;11.53;10.33;;;;;19.30;97290.00;;;;5075930;28;20255;-86
2023/08/22 03:00:34;;;;;;;12.97;9.93;;;;;19.20;97294.00;;;;5077207;28;20601;-87
2023/08/22 03:03:23;;;;;;;11.83;9.87;;;;;19.00;97286.00;;;;5074875;28;20683;-86
2023/08/22 03:06:14;;;;;;;15.93;10.90;;;;;18.90;97287.00;;;;5079091;28;20305;-85
2023/08/22 03:09:03;;;;;;;13.50;10.17;;;;;19.10;97295.00;;;;5080114;28;20204;-85
2023/08/22 03:11:52;;;;;;;14.73;11.00;;;;;19.30;97285.00;;;;5085484;28;20207;-86
2023/08/22 03:14:43;;;;;;;13.20;9.90;;;;;19.30;97285.00;;;;5079727;28;20223;-86
2023/08/22 03:17:32;;;;;;;14.30;10.47;;;;;19.20;97289.00;;;;5078692;28;20504;-86
2023/08/22 03:20:21;;;;;;;13.40;12.00;;;;;19.20;97288.00;;;;5072391;28;20299;-84
2023/08/22 03:23:11;;;;;;;17.10;9.97;;;;;19.30;97283.00;;;;5079960;28;20478;-84
2023/08/22 03:26:02;;;;;;;12.53;10.73;;;;;19.30;97286.00;;;;5076697;28;20204;-86
2023/08/22 03:28:51;;;;;;;15.50;10.33;;;;;19.00;97285.00;;;;5087971;28;20534;-84
2023/08/22 03:31:40;;;;;;;14.00;10.60;;;;;19.20;97287.00;;;;5076491;28;20200;-85
2023/08/22 03:34:29;;;;;;;12.50;11.20;;;;;18.90;97294.00;;;;5080983;28;20215;-86
2023/08/22 03:37:18;;;;;;;12.57;10.77;;;;;18.80;97296.00;;;;5083284;28;20673;-85
2023/08/22 03:40:10;;;;;;;15.97;10.87;;;;;18.80;97292.00;;;;5095897;28;20206;-84
2023/08/22 03:43:00;;;;;;;13.07;11.00;;;;;19.20;97292.00;;;;5084206;28;20648;-85
2023/08/22 03:45:49;;;;;;;13.33;11.17;;;;;19.60;97287.00;;;;5081200;28;20642;-84
2023/08/22 03:48:38;;;;;;;12.73;10.70;;;;;19.30;97288.00;;;;5105702;28;20194;-84
2023/08/22 03:51:27;;;;;;;12.57;10.40;;;;;18.90;97287.00;;;;5092837;28;20199;-85
2023/08/22 03:54:16;;;;;;;15.87;10.50;;;;;18.90;97279.00;;;;5086675;28;20243;-85
2023/08/22 03:57:06;;;;;;;11.27;9.60;;;;;18.60;97278.00;;;;5078002;28;20210;-86
2023/08/22 03:59:55;;;;;;;13.60;10.60;;;;;18.80;97285.00;;;;5076886;28;20203;-86
2023/08/22 04:02:44;;;;;;;12.30;9.57;;;;;18.60;97285.00;;;;5073082;28;20509;-85
2023/08/22 04:05:34;;;;;;;15.07;9.87;;;;;18.40;97285.00;;;;5080523;28;20227;-88
2023/08/22 04:08:23;;;;;;;14.53;11.13;;;;;18.50;97282.00;;;;5112194;28;20194;-88
2023/08/22 04:11:12;;;;;;;12.93;10.43;;;;;18.60;97282.00;;;;5091681;28;20207;-87
2023/08/22 04:14:02;;;;;;;13.63;10.83;;;;;18.80;97282.00;;;;5092055;28;20226;-87
2023/08/22 04:16:51;;;;;;;12.17;10.87;;;;;18.60;97281.00;;;;5071135;28;20219;-87
2023/08/22 04:19:40;;;;;;;12.97;10.47;;;;;18.70;97278.00;;;;5076805;28;20215;-86
2023/08/22 04:22:31;;;;;;;14.27;12.70;;;;;19.00;97279.00;;;;5092022;28;20394;-86
2023/08/22 04:25:22;;;;;;;16.30;11.83;;;;;19.20;97279.00;;;;5090322;28;20216;-85
2023/08/22 04:28:13;;;;;;;15.27;11.67;;;;;19.00;97281.00;;;;5091673;28;20199;-85
2023/08/22 04:31:03;;;;;;;14.30;10.40;;;;;18.70;97277.00;;;;5086835;28;20222;-85
2023/08/22 04:33:52;;;;;;;17.53;10.70;;;;;18.90;97274.00;;;;5094453;28;20715;-86
2023/08/22 04:36:41;;;;;;;14.77;11.67;;;;;18.80;97278.00;;;;5070162;28;20200;-87
2023/08/22 04:39:30;;;;;;;17.37;10.00;;;;;18.60;97273.00;;;;5073114;28;20227;-86
2023/08/22 04:42:19;;;;;;;14.57;10.33;;;;;18.50;97279.00;;;;5082625;28;20202;-86
2023/08/22 04:45:09;;;;;;;18.27;10.50;;;;;18.60;97281.00;;;;5087309;28;20223;-86
2023/08/22 04:48:00;;;;;;;14.90;10.77;;;;;18.90;97282.00;;;;5085954;28;20206;-85
2023/08/22 04:50:50;;;;;;;12.50;10.30;;;;;19.00;97283.00;;;;5080864;28;20207;-88
2023/08/22 04:53:39;;;;;;;13.10;10.83;;;;;19.10;97280.00;;;;5086104;28;20199;-85
2023/08/22 04:56:28;;;;;;;15.17;11.43;;;;;19.70;97280.00;;;;5075854;28;20663;-85
2023/08/22 04:59:17;;;;;;;12.07;10.33;;;;;19.90;97282.00;;;;5084110;28;20258;-87
2023/08/22 05:02:06;;;;;;;11.33;10.23;;;;;19.80;97286.00;;;;5079935;28;20222;-84
2023/08/22 05:04:56;;;;;;;14.27;10.93;;;;;19.20;97284.00;;;;5089948;28;20222;-85
2023/08/22 05:07:45;;;;;;;12.37;9.87;;;;;19.30;97285.00;;;;5086000;28;20206;-87
2023/08/22 05:10:35;;;;;;;10.93;9.43;;;;;19.30;97281.00;;;;5080200;28;20214;-87
2023/08/22 05:13:25;;;;;;;13.40;8.87;;;;;19.50;97290.00;;;;5077334;28;20198;-87
2023/08/22 05:16:14;;;;;;;12.37;10.47;;;;;19.70;97282.00;;;;5104635;28;20211;-85
2023/08/22 05:19:03;;;;;;;15.67;10.83;;;;;19.80;97286.00;;;;5082174;28;20227;-86
2023/08/22 05:21:54;;;;;;;13.07;10.13;;;;;20.30;97287.00;;;;5083671;28;20200;-86
2023/08/22 05:24:43;;;;;;;15.03;9.37;;;;;20.40;97293.00;;;;5082435;28;20234;-86
2023/08/22 05:27:32;;;;;;;9.80;8.60;;;;;20.40;97289.00;;;;5080358;28;20199;-86
2023/08/22 05:30:21;;;;;;;13.00;10.50;;;;;20.30;97294.00;;;;5080488;28;20735;-86
2023/08/22 05:33:10;;;;;;;12.13;9.90;;;;;20.60;97299.00;;;;5081065;28;20196;-87
2023/08/22 05:35:59;;;;;;;10.17;8.47;;;;;20.70;97295.00;;;;5090503;28;20202;-86
2023/08/22 05:38:50;;;;;;;16.47;9.63;;;;;20.50;97295.00;;;;5090342;28;20218;-86
2023/08/22 05:41:39;;;;;;;10.33;9.23;;;;;20.80;97290.00;;;;5079071;28;20214;-86
2023/08/22 05:44:29;;;;;;;13.40;9.03;;;;;20.70;97288.00;;;;5074927;28;20609;-84
2023/08/22 05:47:18;;;;;;;11.97;9.73;;;;;21.20;97282.00;;;;5101337;28;20203;-86
2023/08/22 05:50:08;;;;;;;13.80;11.03;;;;;21.10;97292.00;;;;5090508;28;20206;-85
2023/08/22 05:52:57;;;;;;;11.77;9.43;;;;;21.40;97294.00;;;;5089882;28;20199;-85
2023/08/22 05:55:47;;;;;;;11.90;9.37;;;;;21.50;97302.00;;;;5096448;28;20227;-87
2023/08/22 05:58:36;;;;;;;11.85;10.68;;;;;21.60;97295.00;;;;5092725;28;20402;-87
2023/08/22 06:01:25;;;;;;;13.90;10.60;;;;;21.80;97292.00;;;;5085465;28;20246;-85
2023/08/22 06:04:14;;;;;;;16.00;10.33;;;;;21.70;97284.00;;;;5078685;28;20227;-86
2023/08/22 06:07:04;;;;;;;11.53;10.33;;;;;22.10;97294.00;;;;5084168;28;20195;-85
2023/08/22 06:09:53;;;;;;;12.33;9.67;;;;;22.10;97289.00;;;;5085448;28;20203;-87
2023/08/22 06:12:43;;;;;;;11.20;9.60;;;;;22.30;97290.00;;;;5078411;28;20195;-86
2023/08/22 06:15:32;;;;;;;13.73;10.77;;;;;22.70;97297.00;;;;5090807;28;20678;-86
2023/08/22 06:18:21;;;;;;;13.30;10.90;;;;;23.10;97286.00;;;;5101803;28;20209;-86
2023/08/22 06:21:10;;;;;;;17.77;11.77;;;;;23.70;97287.00;;;;5086162;28;20198;-87
2023/08/22 06:23:59;;;;;;;13.03;11.03;;;;;23.60;97285.00;;;;5096274;28;20215;-88
2023/08/22 06:26:48;;;;;;;16.43;11.47;;;;;23.80;97280.00;;;;5084385;28;20204;-87
2023/08/22 06:29:39;;;;;;;17.83;12.30;;;;;24.00;97282.00;;;;5082766;28;20199;-87
2023/08/22 06:32:28;;;;;;;16.83;13.10;;;;;24.20;97285.00;;;;5091024;28;20616;-87
2023/08/22 06:35:17;;;;;;;22.83;12.53;;;;;24.20;97278.00;;;;5088986;28;20699;-88
2023/08/22 06:38:06;;;;;;;17.43;12.87;;;;;24.60;97284.00;;;;5095003;28;20204;-87
2023/08/22 06:40:55;;;;;;;18.40;12.27;;;;;25.20;97278.00;;;;5084359;28;20604;-88
2023/08/22 06:43:44;;;;;;;22.07;12.77;;;;;25.30;97282.00;;;;5085222;28;20689;-88
2023/08/22 06:46:35;;;;;;;21.93;13.97;;;;;25.60;97282.00;;;;5089951;28;20190;-88
2023/08/22 06:49:25;;;;;;;22.40;13.93;;;;;25.80;97283.00;;;;5087678;28;20246;-88
2023/08/22 06:52:14;;;;;;;22.30;14.23;;;;;25.50;97281.00;;;;5085509;28;20199;-86
2023/08/22 06:55:03;;;;;;;19.50;12.03;;;;;25.60;97285.00;;;;5085921;28;20238;-88
2023/08/22 06:57:52;;;;;;;18.60;11.63;;;;;26.00;97281.00;;;;5087213;28;20226;-87
2023/08/22 07:00:41;;;;;;;18.90;11.97;;;;;25.90;97286.00;;;;5079656;28;20230;-87
2023/08/22 07:03:32;;;;;;;17.50;12.93;;;;;26.10;97282.00;;;;5084579;28;20199;-86
2023/08/22 07:06:21;;;;;;;21.07;12.13;;;;;26.50;97287.00;;;;5093319;28;20207;-87
2023/08/22 07:09:10;;;;;;;14.07;12.03;;;;;26.80;97282.00;;;;5082930;28;20204;-86
2023/08/22 07:11:59;;;;;;;16.03;12.10;;;;;26.70;97277.00;;;;5102574;28;20588;-87
2023/08/22 07:14:48;;;;;;;16.83;12.33;;;;;27.00;97277.00;;;;5091409;28;20227;-87
2023/08/22 07:17:37;;;;;;;14.87;11.43;;;;;26.80;97279.00;;;;5078034;28;20207;-86
2023/08/22 07:20:28;;;;;;;19.47;11.20;;;;;26.30;97282.00;;;;5082399;28;20212;-87
2023/08/22 07:23:17;;;;;;;15.50;12.17;;;;;27.00;97274.00;;;;5091942;28;20207;-88
2023/08/22 07:26:06;;;;;;;16.83;12.50;;;;;27.30;97271.00;;;;5090164;28;20203;-86
2023/08/22 07:28:55;;;;;;;14.93;11.47;;;;;27.30;97268.00;;;;5090986;28;20203;-87
2023/08/22 07:31:44;;;;;;;20.17;12.60;;;;;27.00;97267.00;;;;5085523;28;20198;-87
2023/08/22 07:34:34;;;;;;;16.23;11.10;;;;;27.80;97274.00;;;;5083472;28;20228;-88
2023/08/22 07:37:24;;;;;;;18.67;11.23;;;;;28.00;97268.00;;;;5078496;28;20200;-87
2023/08/22 07:40:16;;;;;;;16.30;11.10;;;;;27.70;97265.00;;;;5075496;28;20630;-87
2023/08/22 07:43:05;;;;;;;19.10;12.47;;;;;28.00;97262.00;;;;5087327;28;20202;-87
2023/08/22 07:45:54;;;;;;;12.83;11.47;;;;;28.00;97261.00;;;;5104296;28;20219;-87
2023/08/22 07:48:43;;;;;;;15.67;11.73;;;;;28.30;97255.00;;;;5083441;28;20196;-87
2023/08/22 07:51:34;;;;;;;18.10;11.87;;;;;28.80;97247.00;;;;5083007;28;20197;-87
2023/08/22 07:54:24;;;;;;;17.17;11.53;;;;;29.10;97248.00;;;;5095393;28;20698;-88
2023/08/22 07:57:13;;;;;;;13.93;10.60;;;;;29.10;97254.00;;;;5085292;28;20602;-87
2023/08/22 08:00:11;;;;;;;16.23;12.63;;;;;29.30;97249.00;;;;5084837;28;20224;-86
2023/08/22 08:03:00;;;;;;;16.23;11.33;;;;;29.60;97254.00;;;;5088377;28;20220;-87
2023/08/22 08:05:49;;;;;;;17.73;11.60;;;;;29.90;97245.00;;;;5083539;28;20220;-85
2023/08/22 08:08:38;;;;;;;17.23;11.47;;;;;29.70;97244.00;;;;5086120;28;20204;-86
2023/08/22 08:11:29;;;;;;;14.03;10.80;;;;;29.90;97248.00;;;;5081570;28;20197;-85
2023/08/22 08:14:18;;;;;;;13.97;11.13;;;;;30.00;97242.00;;;;5077056;28;20225;-85
2023/08/22 08:17:07;;;;;;;19.33;11.20;;;;;30.40;97247.00;;;;5075982;28;20260;-86
2023/08/22 08:19:56;;;;;;;13.87;10.70;;;;;30.70;97243.00;;;;5079979;28;20223;-85
2023/08/22 08:22:45;;;;;;;11.73;10.50;;;;;30.60;97240.00;;;;5077857;28;20197;-86
2023/08/22 08:25:36;;;;;;;16.30;13.07;;;;;31.00;97237.00;;;;5079191;28;20249;-85
2023/08/22 08:28:26;;;;;;;15.30;11.90;;;;;31.20;97237.00;;;;5086017;28;20210;-84
2023/08/22 08:31:15;;;;;;;13.07;10.97;;;;;31.20;97235.00;;;;5084106;28;20200;-87
2023/08/22 08:34:05;;;;;;;13.63;10.70;;;;;31.40;97244.00;;;;5076106;28;20225;-85
2023/08/22 08:36:54;;;;;;;18.90;10.67;;;;;31.50;97235.00;;;;5094851;28;20191;-87
2023/08/22 08:39:43;;;;;;;18.50;10.90;;;;;31.80;97238.00;;;;5093846;28;20201;-86
2023/08/22 08:42:32;;;;;;;15.90;11.00;;;;;31.80;97245.00;;;;5074405;28;20237;-86
2023/08/22 08:45:23;;;;;;;15.60;11.13;;;;;32.00;97239.00;;;;5076086;28;20217;-86
2023/08/22 08:48:12;;;;;;;14.10;11.35;;;;;32.20;97240.00;;;;5082232;28;20212;-85
2023/08/22 08:51:02;;;;;;;12.77;10.17;;;;;32.10;97245.00;;;;5080089;28;20199;-87
2023/08/22 08:53:52;;;;;;;17.27;10.43;;;;;32.50;97241.00;;;;5073284;28;20230;-87
2023/08/22 08:56:41;;;;;;;15.02;11.23;;;;;32.50;97239.00;;;;5072579;28;20196;-86
2023/08/22 08:59:31;;;;;;;15.75;11.80;;;;;32.70;97240.00;;;;5068548;28;20199;-86
2023/08/22 09:02:21;;;;;;;14.98;10.60;;;;;32.60;97245.00;;;;5089614;28;20214;-86
2023/08/22 09:05:11;;;;;;;13.90;11.25;;;;;32.80;97246.00;;;;5097098;28;20237;-87
2023/08/22 09:08:15;;;;;;;13.88;11.77;;;;;33.30;97253.00;;;;5091566;28;20194;-86
2023/08/22 09:11:04;;;;;;;14.45;10.80;;;;;33.30;97243.00;;;;5078542;28;20210;-87
2023/08/22 09:13:54;;;;;;;13.95;11.65;;;;;33.50;97237.00;;;;5069886;28;20222;-86
2023/08/22 09:16:44;;;;;;;14.45;10.38;;;;;33.70;97239.00;;;;5079419;28;20242;-91
2023/08/22 09:19:35;;;;;;;15.82;11.60;;;;;34.00;97244.00;;;;5099279;28;20204;-86
2023/08/22 09:22:30;;;;;;;12.20;10.48;;;;;34.20;97234.00;;;;5089736;28;20239;-84
2023/08/22 09:25:20;;;;;;;13.95;10.75;;;;;34.30;97243.00;;;;5072093;28;20229;-86
2023/08/22 09:28:11;;;;;;;13.15;10.55;;;;;34.40;97237.00;;;;5081849;28;20218;-86
2023/08/22 09:31:00;;;;;;;11.50;9.85;;;;;34.50;97233.00;;;;5070749;28;20308;-85
2023/08/22 09:33:50;;;;;;;12.52;8.82;;;;;34.80;97241.00;;;;5083710;28;20208;-86
2023/08/22 09:36:46;;;;;;;9.15;7.78;;;;;34.80;97230.00;;;;5079563;28;20694;-85
2023/08/22 09:39:36;;;;;;;12.30;8.00;;;;;34.80;97236.00;;;;5085652;28;20239;-86
2023/08/22 09:42:26;;;;;;;11.38;8.18;;;;;34.50;97227.00;;;;5077268;28;20229;-86
2023/08/22 09:45:16;;;;;;;10.20;9.20;;;;;33.60;97219.00;;;;5083434;28;20718;-86
2023/08/22 09:48:06;;;;;;;20.25;10.38;;;;;33.80;97215.00;;;;5071229;28;20212;-85
2023/08/22 09:51:00;;;;;;;11.00;9.70;;;;;34.80;97222.00;;;;5078040;28;20194;-85
2023/08/22 09:53:52;;;;;;;11.60;10.18;;;;;35.20;97220.00;;;;5080659;28;20206;-85
2023/08/22 09:56:41;;;;;;;9.32;8.38;;;;;35.00;97208.00;;;;5082819;28;20200;-85
2023/08/22 09:59:31;;;;;;;9.77;8.52;;;;;35.10;97205.00;;;;5084863;28;20205;-85
2023/08/22 10:02:20;;;;;;;8.77;7.88;;;;;35.50;97220.00;;;;5068868;28;20230;-85
2023/08/22 10:05:11;;;;;;;9.70;8.23;;;;;35.70;97205.00;;;;5066804;28;20217;-85
2023/08/22 10:08:00;;;;;;;10.05;7.75;;;;;36.30;97206.00;;;;5066825;28;20206;-85
2023/08/22 10:10:51;;;;;;;8.60;7.80;;;;;36.60;97199.00;;;;5075145;28;20191;-85
2023/08/22 10:13:41;;;;;;;9.95;8.15;;;;;36.50;97204.00;;;;5072991;28;20203;-86
2023/08/22 10:16:31;;;;;;;9.07;7.90;;;;;36.80;97195.00;;;;5081525;28;20591;-86
2023/08/22 10:19:22;;;;;;;8.98;7.78;;;;;37.10;97194.00;;;;5067473;28;20680;-85
2023/08/22 10:22:13;;;;;;;11.05;7.80;;;;;37.30;97185.00;;;;5068083;28;20603;-86
2023/08/22 10:25:06;;;;;;;8.73;7.82;;;;;37.30;97191.00;;;;5068924;28;20227;-85
2023/08/22 10:28:05;;;;;;;12.93;8.13;;;;;37.40;97190.00;;;;5080616;28;20202;-86
2023/08/22 10:31:07;;;;;;;11.77;7.93;;;;;37.00;97189.00;;;;5077722;28;20579;-86
2023/08/22 10:34:03;;;;;;;9.80;8.77;;;;;37.40;97182.00;;;;5068032;28;20215;-86
2023/08/22 10:36:59;;;;;;;9.50;8.23;;;;;37.50;97182.00;;;;5071532;28;20600;-86
2023/08/22 10:39:50;;;;;;;9.80;8.63;;;;;37.80;97177.00;;;;5079386;28;20202;-85
2023/08/22 10:42:39;;;;;;;10.30;8.13;;;;;37.80;97175.00;;;;5080508;28;20219;-85
2023/08/22 10:45:38;;;;;;;10.98;9.27;;;;;37.60;97175.00;;;;5083864;28;20222;-85
2023/08/22 10:48:27;;;;;;;12.45;8.25;;;;;38.10;97169.00;;;;5077836;28;20210;-85
2023/08/22 10:51:16;;;;;;;8.32;7.53;;;;;36.70;97172.00;;;;5077873;28;20198;-86
2023/08/22 10:54:17;;;;;;;10.35;7.68;;;;;36.90;97160.00;;;;5076164;28;20437;-85
2023/08/22 10:57:18;;;;;;;8.10;7.30;;;;;37.50;97156.00;;;;5085765;28;20215;-86
2023/08/22 11:00:20;;;;;;;14.85;6.97;;;;;38.30;97158.00;;;;5079589;28;20205;-85
2023/08/22 11:03:11;;;;;;;9.55;6.53;;;;;38.40;97162.00;;;;5096161;28;20212;-85
2023/08/22 11:06:00;;;;;;;11.75;6.43;;;;;38.00;97154.00;;;;5081486;28;20207;-85
2023/08/22 11:08:49;;;;;;;6.05;5.50;;;;;38.40;97163.00;;;;5076805;28;20207;-86
2023/08/22 11:11:38;;;;;;;9.15;6.72;;;;;38.50;97151.00;;;;5086303;28;20202;-86
2023/08/22 11:14:27;;;;;;;10.68;6.50;;;;;39.20;97149.00;;;;5080902;28;20214;-86
2023/08/22 11:17:17;;;;;;;9.65;5.82;;;;;38.40;97149.00;;;;5071292;28;20207;-86
2023/08/22 11:20:11;;;;;;;8.82;5.60;;;;;39.10;97140.00;;;;5093459;28;20199;-85
2023/08/22 11:23:04;;;;;;;10.63;7.43;;;;;39.60;97142.00;;;;5085666;28;20222;-85
2023/08/22 11:25:53;;;;;;;9.18;6.40;;;;;39.70;97143.00;;;;5084694;28;20221;-85
2023/08/22 11:28:42;;;;;;;8.77;6.85;;;;;39.40;97134.00;;;;5079616;28;20726;-86
2023/08/22 11:31:31;;;;;;;6.30;5.43;;;;;39.60;97134.00;;;;5086400;28;20207;-85
2023/08/22 11:34:22;;;;;;;6.80;5.25;;;;;38.30;97130.00;;;;5082004;28;20227;-85
2023/08/22 11:37:13;;;;;;;10.50;5.50;;;;;38.20;97135.00;;;;5086602;28;20229;-86
2023/08/22 11:40:03;;;;;;;5.10;4.60;;;;;38.30;97127.00;;;;5089929;28;20217;-86
2023/08/22 11:42:53;;;;;;;6.38;5.13;;;;;39.30;97121.00;;;;5104285;28;20214;-85
2023/08/22 11:45:48;;;;;;;6.45;4.45;;;;;40.20;97126.00;;;;5076387;28;20232;-85
2023/08/22 11:48:37;;;;;;;4.43;3.60;;;;;40.70;97118.00;;;;5089494;28;20206;-85
2023/08/22 11:51:29;;;;;;;5.07;4.55;;;;;40.90;97125.00;;;;5087013;28;20195;-84
2023/08/22 11:54:29;;;;;;;5.00;4.50;;;;;41.60;97126.00;;;;5081441;28;20223;-85
2023/08/22 11:57:18;;;;;;;6.18;5.57;;;37.30;59.40;42.20;97118.00;;;;5089971;28;20729;-86
2023/08/22 12:00:08;;;;;;;5.85;4.43;;;37.60;59.20;41.10;97111.00;;;;5084246;28;20214;-85
2023/08/22 12:03:01;;;;;;;5.82;4.15;;;37.90;57.20;39.80;97112.00;;;;5077649;28;20199;-87
2023/08/22 12:05:49;;;;;;;7.55;4.82;;;37.70;56.10;38.20;97107.00;;;;5098946;28;20941;-86
2023/08/22 12:08:38;;;;;;;6.57;4.90;;;37.00;55.30;40.90;97105.00;;;;5073799;28;20195;-86
2023/08/22 12:11:29;;;;;;;6.47;4.47;;;37.00;57.70;41.70;97103.00;;;;5078285;28;20219;-86
2023/08/22 12:14:20;;;;;;;8.07;4.05;;;37.30;57.70;41.60;97101.00;;;;5080062;28;20222;-86
2023/08/22 12:17:09;;;;;;;4.05;3.65;;;37.70;57.10;41.80;97105.00;;;;5080573;28;20211;-85
2023/08/22 12:19:58;;;;;;;6.40;4.97;;;38.00;57.80;42.70;97096.00;;;;5081899;28;20211;-85
2023/08/22 12:22:46;;;;;;;4.60;4.20;;;38.30;57.40;43.20;97094.00;;;;5075689;28;20207;-86
2023/08/22 12:25:36;;;;;;;8.05;4.75;;;38.70;55.90;43.20;97090.00;;;;5088985;28;20604;-85
2023/08/22 12:28:27;;;;;;;5.88;3.97;;;39.00;55.60;42.80;97097.00;;;;5077294;28;20194;-85
2023/08/22 12:31:15;;;;;;;5.53;4.60;;;39.10;55.50;43.10;97095.00;;;;5077388;28;20687;-85
2023/08/22 12:34:04;;;;;;;4.57;4.07;;;39.30;55.00;43.20;97094.00;;;;5092295;28;20421;-85
2023/08/22 12:36:53;;;;;;;4.72;4.20;;;39.30;55.10;43.80;97085.00;;;;5069512;28;20204;-85
2023/08/22 12:39:42;;;;;;;5.05;4.03;;;39.50;54.40;43.70;97083.00;;;;5069693;28;20202;-85
2023/08/22 12:42:30;;;;;;;7.40;3.88;;;39.60;52.70;43.20;97089.00;;;;5075736;28;20204;-85
2023/08/22 12:45:21;;;;;;;5.15;3.47;;;39.70;52.50;43.50;97084.00;;;;5073498;28;20215;-85
2023/08/22 12:48:10;;;;;;;6.03;3.28;;;39.70;51.10;44.10;97081.00;;;;5088089;28;20206;-87
2023/08/22 12:50:59;;;;;;;4.43;4.07;;;39.80;52.10;44.40;97078.00;;;;5092838;28;20237;-91
2023/08/22 12:53:48;;;;;;;6.85;5.03;;;40.10;51.80;43.80;97085.00;;;;5076112;28;20231;-87
2023/08/22 12:56:36;;;;;;;4.70;3.97;;;40.20;50.50;44.50;97077.00;;;;5083591;28;20198;-86
2023/08/22 12:59:26;;;;;;;6.20;4.60;;;40.30;52.60;44.90;97077.00;;;;5085904;28;20381;-85
2023/08/22 13:02:17;;;;;;;8.27;4.20;;;40.60;52.80;45.10;97075.00;;;;5077030;28;20668;-85
2023/08/22 13:05:06;;;;;;;7.25;4.32;;;40.80;52.60;45.00;97074.00;;;;5088896;28;20673;-86
2023/08/22 13:07:55;;;;;;;9.23;4.35;;;41.00;51.30;45.10;97072.00;;;;5084002;28;20209;-85
2023/08/22 13:10:44;;;;;;;5.80;4.18;;;41.20;51.20;45.50;97068.00;;;;5095155;28;20221;-87
2023/08/22 13:13:33;;;;;;;9.75;3.83;;;41.30;51.20;45.50;97074.00;;;;5099709;28;20230;-86
2023/08/22 13:16:22;;;;;;;4.82;3.50;;;41.40;50.50;46.00;97066.00;;;;5079560;28;20241;-85
2023/08/22 13:19:12;;;;;;;6.78;4.03;;;41.70;50.50;45.80;97069.00;;;;5087815;28;20199;-87
2023/08/22 13:22:01;;;;;;;5.53;3.75;;;41.80;50.00;45.90;97063.00;;;;5082211;28;20217;-87
2023/08/22 13:24:50;;;;;;;4.93;3.97;;;41.80;49.00;46.00;97061.00;;;;5070497;28;20226;-86
2023/08/22 13:27:39;;;;;;;4.80;3.45;;;42.00;48.90;46.10;97069.00;;;;5075062;28;20201;-86
2023/08/22 13:30:28;;;;;;;3.60;3.00;;;42.10;48.40;45.40;97057.00;;;;5097160;28;20204;-86
2023/08/22 13:33:17;;;;;;;4.22;3.22;;;41.90;46.90;45.80;97051.00;;;;5091915;28;20237;-85
2023/08/22 13:36:07;;;;;;;5.68;3.45;;;41.90;47.70;45.50;97053.00;;;;5072343;28;20203;-85
2023/08/22 13:38:57;;;;;;;3.55;3.13;;;41.80;47.00;44.60;97053.00;;;;5092179;28;20569;-86
2023/08/22 13:41:47;;;;;;;6.15;3.75;;;41.70;47.60;44.50;97053.00;;;;5094239;28;20192;-85
2023/08/22 13:44:36;;;;;;;3.60;3.30;;;41.40;46.90;45.20;97041.00;;;;5075854;28;20229;-86